Stations météo

réclame
Mon MeteoGroup
Ile du Levant, France (7678): Température de l'air & dewpoint: 18.08.2019 00:00:00 - 24.08.2019 00:00:00 (CEST)Ile du Levant, France (7678): Vitesse du vent & gusts: 18.08.2019 00:00:00 - 24.08.2019 00:00:00 (CEST)Ile du Levant, France (7678): Direction du vent: 18.08.2019 00:00:00 - 24.08.2019 00:00:00 (CEST)Ile du Levant, France (7678): reduced air pressure: 18.08.2019 00:00:00 - 24.08.2019 00:00:00 (CEST)Ile du Levant, France (7678): Ensoleillement: 18.08.2019 00:00:00 - 24.08.2019 00:00:00 (CEST)Ile du Levant, France (7678): Quantités de précipitations: 18.08.2019 00:00:00 - 24.08.2019 00:00:00 (CEST)
Date & Time tt [°C] td [°C] ff [km/h] ff [knt] fx [km/h] fx [knt] dd ppp [hPa] sd [min] rr [mm]
24.08.2019 00:00:00 - - - - - - - - - -
23.08.2019 23:00:00 23,6 19,7 8 4 9 5 N 1019,2 0 0,0
23.08.2019 22:00:00 23,6 19,7 5 3 9 5 N 1019,4 0 0,0
23.08.2019 21:00:00 23,4 19,5 5 3 13 7 NE 1019,1 0 0,0
23.08.2019 20:00:00 24,7 19,5 8 4 16 9 ESE 1018,8 30 -
23.08.2019 19:00:00 25,0 18,4 11 6 16 9 E 1018,8 0 0,0
23.08.2019 18:00:00 25,7 17,4 11 6 24 13 ESE 1018,5 12 0,0
23.08.2019 17:00:00 28,3 17,8 16 9 29 16 ESE 1018,8 60 0,0
23.08.2019 16:00:00 28,4 18,5 16 9 28 15 ESE 1018,9 60 0,0
23.08.2019 15:00:00 28,8 18,6 21 11 31 17 ESE 1019,0 60 0,0
23.08.2019 14:00:00 28,4 18,8 21 11 34 18 E 1019,5 60 -
23.08.2019 13:00:00 28,8 20,0 18 10 37 20 ESE 1019,4 60 0,0
23.08.2019 12:00:00 28,7 20,4 16 9 29 16 ESE 1019,6 60 0,0
23.08.2019 11:00:00 28,0 19,0 15 8 24 13 ESE 1019,8 60 0,0
23.08.2019 10:00:00 26,9 17,9 8 4 16 9 SE 1019,1 60 0,0
23.08.2019 09:00:00 26,1 16,1 0 0 13 7 N 1018,7 60 0,0
23.08.2019 08:00:00 24,0 14,7 11 6 16 9 WNW 1018,7 36 -
23.08.2019 07:00:00 23,1 14,4 2 1 18 10 NW 1018,9 0 0,0
23.08.2019 06:00:00 22,9 16,4 15 8 18 10 W 1018,4 0 0,0
23.08.2019 05:00:00 23,3 15,6 11 6 18 10 WNW 1018,1 0 0,0
23.08.2019 04:00:00 23,2 16,0 11 6 15 8 W 1018,4 0 0,0
23.08.2019 03:00:00 23,1 17,6 11 6 15 8 W 1018,5 0 0,0
23.08.2019 02:00:00 23,8 19,3 8 4 8 4 WSW 1018,7 0 -
23.08.2019 01:00:00 24,1 18,3 4 2 9 5 ESE 1019,0 0 0,0
23.08.2019 00:00:00 24,8 18,0 8 4 9 5 ENE 1018,8 0 0,0
22.08.2019 23:00:00 24,5 18,9 8 4 15 8 N 1018,8 0 0,0
22.08.2019 22:00:00 24,8 15,7 9 5 21 11 NW 1019,2 0 0,0
22.08.2019 21:00:00 24,9 21,6 16 9 26 14 WNW 1019,3 0 0,0
22.08.2019 20:00:00 25,0 20,3 5 3 9 5 NW 1018,8 0 -
22.08.2019 19:00:00 25,9 20,2 8 4 18 10 ESE 1018,5 0 0,0
22.08.2019 18:00:00 26,6 20,9 11 6 24 13 SE 1018,3 42 0,0
22.08.2019 17:00:00 28,2 21,0 15 8 34 18 ESE 1018,3 60 0,0
22.08.2019 16:00:00 29,7 21,9 21 11 35 19 ESE 1018,0 60 0,0
22.08.2019 15:00:00 29,7 21,6 21 11 31 17 ESE 1018,6 18 0,0
22.08.2019 14:00:00 28,7 20,4 15 8 26 14 ESE 1018,9 60 -
22.08.2019 13:00:00 28,3 20,1 15 8 26 14 E 1019,1 24 0,0
22.08.2019 12:00:00 26,8 20,4 11 6 21 11 E 1019,1 12 0,0
22.08.2019 11:00:00 26,7 21,0 5 3 18 10 E 1018,8 54 0,0
22.08.2019 10:00:00 25,1 21,2 8 4 21 11 ESE 1018,4 12 0,0
22.08.2019 09:00:00 23,8 21,1 16 9 26 14 E 1017,6 0 0,0
22.08.2019 08:00:00 23,0 21,3 8 4 11 6 ENE 1017,6 0 -
22.08.2019 07:00:00 22,3 21,1 8 4 8 4 NE 1017,7 0 0,0
22.08.2019 06:00:00 21,9 20,5 4 2 9 5 E 1017,5 0 0,0
22.08.2019 05:00:00 22,3 20,9 4 2 8 4 ENE 1017,2 0 0,2
22.08.2019 04:00:00 22,1 21,1 4 2 9 5 ENE 1017,1 0 0,0
22.08.2019 03:00:00 22,0 20,8 8 4 13 7 ESE 1017,3 0 0,0
22.08.2019 02:00:00 21,9 20,7 8 4 11 6 E 1017,6 0 -
22.08.2019 01:00:00 22,1 20,7 8 4 11 6 ENE 1017,8 0 0,0
22.08.2019 00:00:00 22,2 20,5 9 5 11 6 E 1017,7 0 0,0
21.08.2019 23:00:00 22,3 20,6 4 2 5 3 E 1017,7 0 0,0
21.08.2019 22:00:00 22,7 20,6 2 1 4 2 N 1017,7 0 0,0
21.08.2019 21:00:00 23,0 20,5 2 1 15 8 ESE 1017,4 0 0,0
21.08.2019 20:00:00 24,2 20,5 11 6 22 12 ESE 1016,7 12 -
21.08.2019 19:00:00 25,1 20,4 13 7 22 12 ESE 1016,4 60 0,0
21.08.2019 18:00:00 26,8 20,6 13 7 22 12 ESE 1016,7 60 0,0
21.08.2019 17:00:00 27,4 20,7 15 8 28 15 E 1017,0 60 0,0
21.08.2019 16:00:00 27,5 20,8 15 8 28 15 ESE 1017,2 60 0,0
21.08.2019 15:00:00 27,5 21,1 16 9 31 17 ESE 1017,3 60 0,0
21.08.2019 14:00:00 28,2 20,5 22 12 35 19 ESE 1017,2 60 -
21.08.2019 13:00:00 28,2 20,7 22 12 37 20 ESE 1017,3 54 0,0
21.08.2019 12:00:00 27,9 21,0 22 12 44 24 ESE 1017,4 42 0,0
21.08.2019 11:00:00 26,6 20,7 31 17 44 24 E 1017,2 36 0,0
21.08.2019 10:00:00 26,2 21,6 31 17 41 22 E 1016,9 36 0,0
21.08.2019 09:00:00 25,1 20,6 24 13 39 21 E 1016,8 60 0,0
21.08.2019 08:00:00 23,5 20,6 22 12 35 19 E 1016,6 48 -
21.08.2019 07:00:00 22,3 19,8 16 9 28 15 ENE 1016,3 0 0,0
21.08.2019 06:00:00 22,4 19,8 16 9 24 13 ENE 1016,0 0 0,0
21.08.2019 05:00:00 22,5 18,9 13 7 21 11 ENE 1016,0 0 0,0
21.08.2019 04:00:00 23,2 18,7 8 4 11 6 NNE 1016,3 0 0,0
21.08.2019 03:00:00 22,7 18,2 4 2 13 7 W 1016,3 0 0,0
21.08.2019 02:00:00 22,9 18,9 2 1 8 4 S 1016,2 0 -
21.08.2019 01:00:00 23,0 19,0 8 4 11 6 W 1016,5 0 0,0
21.08.2019 00:00:00 23,8 20,1 4 2 16 9 WSW 1016,7 0 0,0
20.08.2019 23:00:00 24,2 20,3 9 5 16 9 NNW 1016,6 0 0,0
20.08.2019 22:00:00 23,8 18,9 13 7 29 16 W 1016,8 0 0,0
20.08.2019 21:00:00 24,7 18,4 13 7 16 9 W 1016,2 0 0,0
20.08.2019 20:00:00 25,5 18,7 0 0 15 8 N 1016,4 12 -
20.08.2019 19:00:00 25,7 19,6 11 6 24 13 W 1016,4 36 0,0
20.08.2019 18:00:00 27,2 19,5 15 8 26 14 W 1016,7 60 0,0
20.08.2019 17:00:00 27,9 21,0 16 9 29 16 WSW 1016,7 36 0,0
20.08.2019 16:00:00 26,7 21,5 15 8 22 12 W 1017,4 18 0,0
20.08.2019 15:00:00 25,6 20,8 11 6 21 11 SSE 1017,6 30 0,0
20.08.2019 14:00:00 26,4 21,2 11 6 24 13 SE 1017,3 42 -
20.08.2019 13:00:00 - - - - - - - - - -
20.08.2019 12:00:00 27,8 21,3 16 9 28 15 ESE 1017,3 60 0,0
20.08.2019 11:00:00 27,4 21,4 13 7 28 15 E 1017,4 48 0,0
20.08.2019 10:00:00 25,2 21,3 8 4 18 10 ENE 1017,1 6 0,0
20.08.2019 09:00:00 24,6 21,5 5 3 15 8 ENE 1016,8 30 0,0
20.08.2019 08:00:00 22,9 21,5 4 2 9 5 ENE 1016,7 6 -
20.08.2019 07:00:00 22,2 21,2 4 2 9 5 NE 1016,2 0 0,0
20.08.2019 06:00:00 22,2 20,8 4 2 8 4 ESE 1016,1 0 0,0
20.08.2019 05:00:00 22,5 21,0 5 3 9 5 NW 1016,2 0 0,0
20.08.2019 04:00:00 22,5 20,6 8 4 11 6 WNW 1016,2 0 0,0
20.08.2019 03:00:00 22,5 21,0 11 6 22 12 WNW 1016,3 0 0,0
20.08.2019 02:00:00 22,7 21,2 13 7 21 11 W 1016,6 0 -
20.08.2019 01:00:00 22,8 21,3 15 8 21 11 W 1017,1 0 0,0
20.08.2019 00:00:00 22,9 20,8 15 8 24 13 WNW 1017,4 0 0,0
19.08.2019 23:00:00 22,5 20,8 13 7 21 11 W 1017,4 0 0,0
19.08.2019 22:00:00 23,1 21,0 15 8 24 13 W 1017,5 0 0,0
19.08.2019 21:00:00 22,9 20,6 9 5 18 10 W 1016,9 0 0,0
19.08.2019 20:00:00 23,9 20,8 13 7 21 11 W 1016,7 36 -
19.08.2019 19:00:00 25,3 21,0 13 7 22 12 SW 1016,3 60 0,0
19.08.2019 18:00:00 26,0 21,0 13 7 21 11 SW 1016,5 60 0,0
19.08.2019 17:00:00 26,6 21,1 11 6 21 11 SW 1016,5 60 0,0
19.08.2019 16:00:00 25,7 20,7 13 7 22 12 S 1016,7 60 0,0
19.08.2019 15:00:00 25,8 20,6 9 5 24 13 S 1016,8 60 0,0
19.08.2019 14:00:00 26,4 20,5 9 5 24 13 SSW 1016,8 60 -
19.08.2019 13:00:00 26,6 20,4 13 7 21 11 SE 1016,7 60 0,0
19.08.2019 12:00:00 25,8 20,4 13 7 21 11 SSE 1016,6 60 0,0
19.08.2019 11:00:00 25,1 19,9 9 5 16 9 SSE 1016,4 48 0,0
19.08.2019 10:00:00 24,9 19,7 9 5 16 9 SE 1016,2 54 0,0
19.08.2019 09:00:00 25,4 20,0 8 4 15 8 ESE 1015,9 60 0,0
19.08.2019 08:00:00 23,1 20,1 4 2 8 4 E 1015,8 48 -
19.08.2019 07:00:00 21,8 19,5 4 2 9 5 E 1015,6 0 0,0
19.08.2019 06:00:00 21,8 19,5 4 2 11 6 E 1015,3 0 0,0
19.08.2019 05:00:00 21,8 19,7 8 4 13 7 E 1015,3 0 0,0
19.08.2019 04:00:00 21,6 19,7 8 4 13 7 E 1015,6 0 0,2
19.08.2019 03:00:00 21,8 20,1 8 4 13 7 E 1015,6 0 0,0
19.08.2019 02:00:00 21,8 20,1 8 4 16 9 E 1016,1 0 -
19.08.2019 01:00:00 21,8 19,9 13 7 16 9 E 1015,9 0 0,0
19.08.2019 00:00:00 22,3 20,2 8 4 16 9 ENE 1016,2 0 0,0
18.08.2019 23:00:00 22,5 20,4 11 6 21 11 ESE 1015,4 0 0,0
18.08.2019 22:00:00 22,4 20,3 11 6 18 10 ESE 1015,2 0 0,0
18.08.2019 21:00:00 22,6 20,1 11 6 18 10 E 1014,8 12 0,0
18.08.2019 20:00:00 24,4 20,1 11 6 24 13 ESE 1014,6 60 -
18.08.2019 19:00:00 25,3 19,9 15 8 28 15 ESE 1014,5 60 0,0
18.08.2019 18:00:00 25,8 20,1 18 10 28 15 ESE 1014,9 60 0,0
18.08.2019 17:00:00 27,0 20,3 18 10 29 16 ESE 1015,0 60 0,0
18.08.2019 16:00:00 26,3 20,2 18 10 28 15 ESE 1015,4 60 0,0
18.08.2019 15:00:00 27,1 20,2 18 10 28 15 ESE 1015,5 60 0,0
18.08.2019 14:00:00 26,7 20,3 15 8 24 13 ESE 1015,8 60 -
18.08.2019 13:00:00 26,8 20,2 11 6 21 11 SE 1016,0 60 0,0
18.08.2019 12:00:00 24,9 20,2 9 5 21 11 SE 1016,2 60 0,0
18.08.2019 11:00:00 25,1 20,4 13 7 21 11 SSE 1016,0 48 0,0
18.08.2019 10:00:00 24,1 20,2 11 6 16 9 SSE 1015,8 48 0,0
18.08.2019 09:00:00 23,2 20,9 4 2 8 4 SE 1015,4 6 0,0
18.08.2019 08:00:00 21,9 20,7 2 1 5 3 NE 1015,4 0 -
18.08.2019 07:00:00 21,5 20,7 4 2 5 3 NNE 1015,2 0 0,0
18.08.2019 06:00:00 21,7 21,0 4 2 8 4 W 1015,2 0 0,0
18.08.2019 05:00:00 21,8 21,0 5 3 8 4 W 1015,2 0 0,2
18.08.2019 04:00:00 21,5 20,3 8 4 11 6 WSW 1015,5 0 0,0
18.08.2019 03:00:00 21,6 20,6 8 4 15 8 W 1015,5 0 0,0
18.08.2019 02:00:00 21,6 20,6 8 4 13 7 WSW 1015,9 0 -
18.08.2019 01:00:00 21,8 20,6 9 5 15 8 WSW 1016,1 0 0,0
18.08.2019 00:00:00 22,1 20,9 11 6 18 10 W 1015,9 0 0,0

tt = Température de l'air
td = dewpoint
ff = Vitesse du vent
fx = gusts
dd = Direction du vent
ppp = reduced air pressure
sd = Ensoleillement
rr = Quantités de précipitations

stations d'obs. à proximité